sensor_id;sensor_type;location;lat;lon;timestamp;P1;durP1;ratioP1;P2;durP2;ratioP2
7253;SDS011;4060;49.186;9.226;2024-03-23T00:54:01;5.80;;;5.25;;
7253;SDS011;4060;49.186;9.226;2024-03-23T00:56:29;5.95;;;5.30;;
7253;SDS011;4060;49.186;9.226;2024-03-23T00:58:59;5.88;;;4.95;;
7253;SDS011;4060;49.186;9.226;2024-03-23T01:01:27;5.65;;;5.15;;
7253;SDS011;4060;49.186;9.226;2024-03-23T01:03:57;6.13;;;5.20;;
7253;SDS011;4060;49.186;9.226;2024-03-23T01:06:28;5.93;;;5.38;;
7253;SDS011;4060;49.186;9.226;2024-03-23T01:08:57;5.63;;;5.13;;
7253;SDS011;4060;49.186;9.226;2024-03-23T01:11:26;6.28;;;5.38;;
7253;SDS011;4060;49.186;9.226;2024-03-23T01:13:56;5.60;;;5.10;;
7253;SDS011;4060;49.186;9.226;2024-03-23T01:16:24;7.35;;;5.57;;
7253;SDS011;4060;49.186;9.226;2024-03-23T01:18:54;5.88;;;5.25;;
7253;SDS011;4060;49.186;9.226;2024-03-23T01:21:22;5.90;;;5.30;;
7253;SDS011;4060;49.186;9.226;2024-03-23T01:23:53;5.68;;;5.18;;
7253;SDS011;4060;49.186;9.226;2024-03-23T01:26:23;6.35;;;5.45;;
7253;SDS011;4060;49.186;9.226;2024-03-23T01:28:52;5.80;;;5.30;;
7253;SDS011;4060;49.186;9.226;2024-03-23T01:31:20;5.82;;;5.22;;
7253;SDS011;4060;49.186;9.226;2024-03-23T01:33:50;5.88;;;5.38;;
7253;SDS011;4060;49.186;9.226;2024-03-23T01:36:19;5.97;;;5.35;;
7253;SDS011;4060;49.186;9.226;2024-03-23T01:38:50;6.00;;;5.40;;
7253;SDS011;4060;49.186;9.226;2024-03-23T01:41:21;5.75;;;5.15;;
7253;SDS011;4060;49.186;9.226;2024-03-23T01:43:54;5.47;;;4.97;;
7253;SDS011;4060;49.186;9.226;2024-03-23T01:46:23;6.10;;;5.50;;
7253;SDS011;4060;49.186;9.226;2024-03-23T01:48:53;5.80;;;5.30;;
7253;SDS011;4060;49.186;9.226;2024-03-23T01:51:22;5.53;;;5.03;;
7253;SDS011;4060;49.186;9.226;2024-03-23T01:53:51;4.93;;;4.53;;
7253;SDS011;4060;49.186;9.226;2024-03-23T01:56:24;4.82;;;4.30;;
7253;SDS011;4060;49.186;9.226;2024-03-23T01:58:53;4.85;;;4.35;;
7253;SDS011;4060;49.186;9.226;2024-03-23T02:01:22;5.15;;;4.65;;
7253;SDS011;4060;49.186;9.226;2024-03-23T02:03:52;4.80;;;4.22;;
7253;SDS011;4060;49.186;9.226;2024-03-23T02:06:21;4.35;;;3.95;;
7253;SDS011;4060;49.186;9.226;2024-03-23T02:08:52;4.45;;;4.10;;
7253;SDS011;4060;49.186;9.226;2024-03-23T02:11:23;4.50;;;4.10;;
7253;SDS011;4060;49.186;9.226;2024-03-23T02:13:52;4.47;;;4.07;;
7253;SDS011;4060;49.186;9.226;2024-03-23T02:16:20;4.45;;;4.05;;
7253;SDS011;4060;49.186;9.226;2024-03-23T02:18:49;4.32;;;3.92;;
7253;SDS011;4060;49.186;9.226;2024-03-23T02:21:17;5.20;;;4.25;;
7253;SDS011;4060;49.186;9.226;2024-03-23T02:23:49;4.05;;;3.65;;
7253;SDS011;4060;49.186;9.226;2024-03-23T02:26:17;4.97;;;3.90;;
7253;SDS011;4060;49.186;9.226;2024-03-23T02:28:46;4.55;;;3.90;;
7253;SDS011;4060;49.186;9.226;2024-03-23T02:31:16;3.65;;;3.35;;
7253;SDS011;4060;49.186;9.226;2024-03-23T02:33:44;4.30;;;3.70;;
7253;SDS011;4060;49.186;9.226;2024-03-23T02:36:13;3.97;;;3.67;;
7253;SDS011;4060;49.186;9.226;2024-03-23T02:38:41;3.65;;;3.35;;
7253;SDS011;4060;49.186;9.226;2024-03-23T02:41:12;3.20;;;3.00;;
7253;SDS011;4060;49.186;9.226;2024-03-23T02:43:40;4.45;;;3.45;;
7253;SDS011;4060;49.186;9.226;2024-03-23T02:46:10;3.75;;;3.33;;
7253;SDS011;4060;49.186;9.226;2024-03-23T02:48:38;3.53;;;3.15;;
7253;SDS011;4060;49.186;9.226;2024-03-23T02:51:07;3.97;;;3.58;;
7253;SDS011;4060;49.186;9.226;2024-03-23T02:53:36;3.33;;;3.05;;
7253;SDS011;4060;49.186;9.226;2024-03-23T02:56:06;3.78;;;3.47;;
7253;SDS011;4060;49.186;9.226;2024-03-23T02:58:36;3.22;;;2.92;;
7253;SDS011;4060;49.186;9.226;2024-03-23T03:01:05;3.67;;;3.38;;
7253;SDS011;4060;49.186;9.226;2024-03-23T03:03:33;4.07;;;2.95;;
7253;SDS011;4060;49.186;9.226;2024-03-23T03:06:04;3.42;;;3.13;;
7253;SDS011;4060;49.186;9.226;2024-03-23T03:08:35;4.15;;;3.75;;
7253;SDS011;4060;49.186;9.226;2024-03-23T03:11:05;3.60;;;3.30;;
7253;SDS011;4060;49.186;9.226;2024-03-23T03:13:38;3.65;;;3.38;;
7253;SDS011;4060;49.186;9.226;2024-03-23T03:16:08;3.55;;;3.25;;
7253;SDS011;4060;49.186;9.226;2024-03-23T03:18:38;3.40;;;3.10;;
7253;SDS011;4060;49.186;9.226;2024-03-23T03:21:06;4.20;;;3.53;;
7253;SDS011;4060;49.186;9.226;2024-03-23T03:23:37;4.50;;;3.70;;
7253;SDS011;4060;49.186;9.226;2024-03-23T03:26:07;3.55;;;3.25;;
7253;SDS011;4060;49.186;9.226;2024-03-23T03:28:37;3.28;;;3.00;;
7253;SDS011;4060;49.186;9.226;2024-03-23T03:31:07;5.80;;;3.22;;
7253;SDS011;4060;49.186;9.226;2024-03-23T03:33:36;3.90;;;3.50;;
7253;SDS011;4060;49.186;9.226;2024-03-23T03:36:06;3.88;;;3.47;;
7253;SDS011;4060;49.186;9.226;2024-03-23T03:38:34;3.97;;;3.13;;
7253;SDS011;4060;49.186;9.226;2024-03-23T03:41:04;4.00;;;3.63;;
7253;SDS011;4060;49.186;9.226;2024-03-23T03:43:33;3.30;;;3.00;;
7253;SDS011;4060;49.186;9.226;2024-03-23T03:46:06;3.15;;;2.90;;
7253;SDS011;4060;49.186;9.226;2024-03-23T03:48:36;4.35;;;3.17;;
7253;SDS011;4060;49.186;9.226;2024-03-23T03:51:06;4.65;;;3.25;;
7253;SDS011;4060;49.186;9.226;2024-03-23T03:53:34;3.72;;;3.30;;
7253;SDS011;4060;49.186;9.226;2024-03-23T03:56:04;3.53;;;3.22;;
7253;SDS011;4060;49.186;9.226;2024-03-23T03:58:32;3.75;;;3.00;;
7253;SDS011;4060;49.186;9.226;2024-03-23T04:01:02;3.55;;;3.08;;
7253;SDS011;4060;49.186;9.226;2024-03-23T04:03:32;3.80;;;3.33;;
7253;SDS011;4060;49.186;9.226;2024-03-23T04:06:02;4.10;;;3.15;;
7253;SDS011;4060;49.186;9.226;2024-03-23T04:08:30;3.92;;;3.53;;
7253;SDS011;4060;49.186;9.226;2024-03-23T04:11:00;4.35;;;2.88;;
7253;SDS011;4060;49.186;9.226;2024-03-23T04:13:28;4.07;;;3.38;;
7253;SDS011;4060;49.186;9.226;2024-03-23T04:15:57;3.67;;;3.20;;
7253;SDS011;4060;49.186;9.226;2024-03-23T04:18:28;4.80;;;3.38;;
7253;SDS011;4060;49.186;9.226;2024-03-23T04:20:57;4.15;;;3.72;;
7253;SDS011;4060;49.186;9.226;2024-03-23T04:23:26;3.60;;;3.30;;
7253;SDS011;4060;49.186;9.226;2024-03-23T04:25:56;3.50;;;3.10;;
7253;SDS011;4060;49.186;9.226;2024-03-23T04:28:30;3.83;;;3.50;;
7253;SDS011;4060;49.186;9.226;2024-03-23T04:31:04;3.50;;;3.20;;
7253;SDS011;4060;49.186;9.226;2024-03-23T04:33:43;4.47;;;3.70;;
7253;SDS011;4060;49.186;9.226;2024-03-23T04:36:13;4.32;;;3.70;;
7253;SDS011;4060;49.186;9.226;2024-03-23T04:38:41;4.15;;;3.75;;
7253;SDS011;4060;49.186;9.226;2024-03-23T04:41:11;5.10;;;3.85;;
7253;SDS011;4060;49.186;9.226;2024-03-23T04:43:41;4.90;;;4.00;;
7253;SDS011;4060;49.186;9.226;2024-03-23T04:46:11;4.05;;;3.65;;
7253;SDS011;4060;49.186;9.226;2024-03-23T04:48:43;4.57;;;4.18;;
7253;SDS011;4060;49.186;9.226;2024-03-23T04:51:20;4.32;;;3.92;;
7253;SDS011;4060;49.186;9.226;2024-03-23T04:53:50;4.75;;;3.95;;
7253;SDS011;4060;49.186;9.226;2024-03-23T04:56:20;4.45;;;3.95;;
7253;SDS011;4060;49.186;9.226;2024-03-23T04:58:48;4.65;;;4.10;;
7253;SDS011;4060;49.186;9.226;2024-03-23T05:01:18;4.05;;;3.75;;
7253;SDS011;4060;49.186;9.226;2024-03-23T05:03:48;6.45;;;4.18;;
7253;SDS011;4060;49.186;9.226;2024-03-23T05:06:19;4.72;;;4.32;;
7253;SDS011;4060;49.186;9.226;2024-03-23T05:08:47;4.75;;;4.35;;
7253;SDS011;4060;49.186;9.226;2024-03-23T05:11:17;5.32;;;4.63;;
7253;SDS011;4060;49.186;9.226;2024-03-23T05:13:47;4.97;;;4.40;;
7253;SDS011;4060;49.186;9.226;2024-03-23T05:16:17;6.68;;;4.97;;
7253;SDS011;4060;49.186;9.226;2024-03-23T05:18:45;5.47;;;4.70;;
7253;SDS011;4060;49.186;9.226;2024-03-23T05:21:16;5.88;;;5.18;;
7253;SDS011;4060;49.186;9.226;2024-03-23T05:23:44;6.50;;;5.60;;
7253;SDS011;4060;49.186;9.226;2024-03-23T05:26:15;8.02;;;5.13;;
7253;SDS011;4060;49.186;9.226;2024-03-23T05:28:43;5.45;;;4.90;;
7253;SDS011;4060;49.186;9.226;2024-03-23T05:31:20;5.38;;;4.97;;
7253;SDS011;4060;49.186;9.226;2024-03-23T05:33:51;5.50;;;5.00;;
7253;SDS011;4060;49.186;9.226;2024-03-23T05:36:22;5.75;;;5.13;;
7253;SDS011;4060;49.186;9.226;2024-03-23T05:38:50;5.95;;;5.35;;
7253;SDS011;4060;49.186;9.226;2024-03-23T05:41:20;6.00;;;5.35;;
7253;SDS011;4060;49.186;9.226;2024-03-23T05:43:50;5.85;;;5.25;;
7253;SDS011;4060;49.186;9.226;2024-03-23T05:46:20;6.60;;;5.07;;
7253;SDS011;4060;49.186;9.226;2024-03-23T05:48:48;5.75;;;5.07;;
7253;SDS011;4060;49.186;9.226;2024-03-23T05:51:20;5.68;;;5.05;;
7253;SDS011;4060;49.186;9.226;2024-03-23T05:53:51;5.35;;;4.85;;
7253;SDS011;4060;49.186;9.226;2024-03-23T05:56:22;5.20;;;4.70;;
7253;SDS011;4060;49.186;9.226;2024-03-23T05:58:52;5.30;;;4.80;;
7253;SDS011;4060;49.186;9.226;2024-03-23T06:01:21;4.57;;;4.18;;
7253;SDS011;4060;49.186;9.226;2024-03-23T06:03:50;4.35;;;3.80;;
7253;SDS011;4060;49.186;9.226;2024-03-23T06:06:29;4.95;;;4.28;;
7253;SDS011;4060;49.186;9.226;2024-03-23T06:08:59;4.03;;;3.65;;
7253;SDS011;4060;49.186;9.226;2024-03-23T06:11:30;4.43;;;4.03;;
7253;SDS011;4060;49.186;9.226;2024-03-23T06:13:58;5.65;;;3.75;;
7253;SDS011;4060;49.186;9.226;2024-03-23T06:16:27;3.90;;;3.42;;
7253;SDS011;4060;49.186;9.226;2024-03-23T06:18:57;4.63;;;3.42;;
7253;SDS011;4060;49.186;9.226;2024-03-23T06:21:26;3.05;;;2.80;;
7253;SDS011;4060;49.186;9.226;2024-03-23T06:23:57;3.17;;;2.88;;
7253;SDS011;4060;49.186;9.226;2024-03-23T06:26:28;3.28;;;2.78;;
7253;SDS011;4060;49.186;9.226;2024-03-23T06:28:56;3.25;;;2.65;;
7253;SDS011;4060;49.186;9.226;2024-03-23T06:31:26;2.83;;;2.60;;
7253;SDS011;4060;49.186;9.226;2024-03-23T06:33:55;2.85;;;2.20;;
7253;SDS011;4060;49.186;9.226;2024-03-23T06:36:25;2.92;;;2.30;;
7253;SDS011;4060;49.186;9.226;2024-03-23T06:38:58;2.25;;;2.05;;
7253;SDS011;4060;49.186;9.226;2024-03-23T06:41:28;2.33;;;2.13;;
7253;SDS011;4060;49.186;9.226;2024-03-23T06:43:57;2.38;;;2.10;;
7253;SDS011;4060;49.186;9.226;2024-03-23T06:46:26;2.28;;;2.08;;
7253;SDS011;4060;49.186;9.226;2024-03-23T06:48:55;2.40;;;2.20;;
7253;SDS011;4060;49.186;9.226;2024-03-23T06:51:24;2.10;;;1.90;;
7253;SDS011;4060;49.186;9.226;2024-03-23T06:53:53;2.45;;;1.70;;
7253;SDS011;4060;49.186;9.226;2024-03-23T06:56:25;1.40;;;1.30;;
7253;SDS011;4060;49.186;9.226;2024-03-23T06:58:53;1.67;;;1.58;;
7253;SDS011;4060;49.186;9.226;2024-03-23T07:01:24;1.67;;;1.58;;
7253;SDS011;4060;49.186;9.226;2024-03-23T07:03:52;1.55;;;1.45;;
7253;SDS011;4060;49.186;9.226;2024-03-23T07:06:21;2.55;;;1.65;;
7253;SDS011;4060;49.186;9.226;2024-03-23T07:08:50;1.30;;;1.20;;
7253;SDS011;4060;49.186;9.226;2024-03-23T07:11:22;1.33;;;1.23;;
7253;SDS011;4060;49.186;9.226;2024-03-23T07:13:53;1.30;;;1.20;;
7253;SDS011;4060;49.186;9.226;2024-03-23T07:16:23;2.97;;;1.70;;
7253;SDS011;4060;49.186;9.226;2024-03-23T07:18:53;0.95;;;0.95;;
7253;SDS011;4060;49.186;9.226;2024-03-23T07:21:23;1.33;;;1.23;;
7253;SDS011;4060;49.186;9.226;2024-03-23T07:23:52;1.25;;;1.15;;
7253;SDS011;4060;49.186;9.226;2024-03-23T07:26:22;1.17;;;1.08;;
7253;SDS011;4060;49.186;9.226;2024-03-23T07:28:52;1.17;;;1.08;;
7253;SDS011;4060;49.186;9.226;2024-03-23T07:31:22;1.35;;;1.25;;
7253;SDS011;4060;49.186;9.226;2024-03-23T07:33:51;1.00;;;1.00;;
7253;SDS011;4060;49.186;9.226;2024-03-23T07:36:22;1.30;;;1.20;;
7253;SDS011;4060;49.186;9.226;2024-03-23T07:38:51;1.00;;;1.00;;
7253;SDS011;4060;49.186;9.226;2024-03-23T07:41:22;1.33;;;1.02;;
7253;SDS011;4060;49.186;9.226;2024-03-23T07:43:53;0.85;;;0.85;;
7253;SDS011;4060;49.186;9.226;2024-03-23T07:46:23;0.80;;;0.80;;
7253;SDS011;4060;49.186;9.226;2024-03-23T07:48:52;1.00;;;0.82;;
7253;SDS011;4060;49.186;9.226;2024-03-23T07:51:22;0.77;;;0.77;;
7253;SDS011;4060;49.186;9.226;2024-03-23T07:53:51;0.75;;;0.60;;
7253;SDS011;4060;49.186;9.226;2024-03-23T07:56:20;0.60;;;0.60;;
7253;SDS011;4060;49.186;9.226;2024-03-23T07:58:51;0.50;;;0.50;;
7253;SDS011;4060;49.186;9.226;2024-03-23T08:01:21;0.63;;;0.63;;
7253;SDS011;4060;49.186;9.226;2024-03-23T08:03:50;0.60;;;0.60;;
7253;SDS011;4060;49.186;9.226;2024-03-23T08:06:21;0.65;;;0.65;;
7253;SDS011;4060;49.186;9.226;2024-03-23T08:08:51;0.63;;;0.63;;
7253;SDS011;4060;49.186;9.226;2024-03-23T08:11:27;1.20;;;0.73;;
7253;SDS011;4060;49.186;9.226;2024-03-23T08:13:58;0.65;;;0.65;;
7253;SDS011;4060;49.186;9.226;2024-03-23T08:16:28;0.50;;;0.50;;
7253;SDS011;4060;49.186;9.226;2024-03-23T08:18:56;0.40;;;0.40;;
7253;SDS011;4060;49.186;9.226;2024-03-23T08:21:26;0.63;;;0.63;;
7253;SDS011;4060;49.186;9.226;2024-03-23T08:23:55;0.73;;;0.55;;
7253;SDS011;4060;49.186;9.226;2024-03-23T08:26:25;0.50;;;0.50;;
7253;SDS011;4060;49.186;9.226;2024-03-23T08:28:54;0.50;;;0.50;;
7253;SDS011;4060;49.186;9.226;2024-03-23T08:31:27;0.82;;;0.50;;
7253;SDS011;4060;49.186;9.226;2024-03-23T08:33:55;0.60;;;0.60;;
7253;SDS011;4060;49.186;9.226;2024-03-23T08:36:26;0.52;;;0.52;;
7253;SDS011;4060;49.186;9.226;2024-03-23T08:38:54;0.50;;;0.50;;
7253;SDS011;4060;49.186;9.226;2024-03-23T08:41:25;0.95;;;0.50;;
7253;SDS011;4060;49.186;9.226;2024-03-23T08:43:53;0.82;;;0.60;;
7253;SDS011;4060;49.186;9.226;2024-03-23T08:46:26;0.77;;;0.77;;
7253;SDS011;4060;49.186;9.226;2024-03-23T08:48:54;0.88;;;0.70;;
7253;SDS011;4060;49.186;9.226;2024-03-23T08:51:24;0.65;;;0.65;;
7253;SDS011;4060;49.186;9.226;2024-03-23T08:53:52;0.95;;;0.75;;
7253;SDS011;4060;49.186;9.226;2024-03-23T08:56:23;1.02;;;0.70;;
7253;SDS011;4060;49.186;9.226;2024-03-23T08:58:56;1.25;;;0.85;;
7253;SDS011;4060;49.186;9.226;2024-03-23T09:01:29;1.05;;;0.80;;
7253;SDS011;4060;49.186;9.226;2024-03-23T09:03:58;1.48;;;0.70;;
7253;SDS011;4060;49.186;9.226;2024-03-23T09:06:33;1.85;;;1.00;;
7253;SDS011;4060;49.186;9.226;2024-03-23T09:09:02;1.45;;;0.82;;
7253;SDS011;4060;49.186;9.226;2024-03-23T09:11:32;1.05;;;0.88;;
7253;SDS011;4060;49.186;9.226;2024-03-23T09:14:00;0.88;;;0.80;;
7253;SDS011;4060;49.186;9.226;2024-03-23T09:16:32;2.92;;;0.90;;
7253;SDS011;4060;49.186;9.226;2024-03-23T09:19:00;1.42;;;0.73;;
7253;SDS011;4060;49.186;9.226;2024-03-23T09:21:30;1.40;;;0.85;;
7253;SDS011;4060;49.186;9.226;2024-03-23T09:23:58;1.98;;;1.02;;
7253;SDS011;4060;49.186;9.226;2024-03-23T09:26:27;2.72;;;1.40;;
7253;SDS011;4060;49.186;9.226;2024-03-23T09:28:56;1.88;;;0.90;;
7253;SDS011;4060;49.186;9.226;2024-03-23T09:31:26;1.17;;;1.00;;
7253;SDS011;4060;49.186;9.226;2024-03-23T09:33:58;1.98;;;1.48;;
7253;SDS011;4060;49.186;9.226;2024-03-23T09:36:28;1.73;;;1.08;;
7253;SDS011;4060;49.186;9.226;2024-03-23T09:38:56;1.52;;;1.08;;
7253;SDS011;4060;49.186;9.226;2024-03-23T09:41:26;2.15;;;1.20;;
7253;SDS011;4060;49.186;9.226;2024-03-23T09:43:54;3.08;;;1.45;;
7253;SDS011;4060;49.186;9.226;2024-03-23T09:46:24;3.03;;;1.50;;
7253;SDS011;4060;49.186;9.226;2024-03-23T09:48:54;2.90;;;1.50;;
7253;SDS011;4060;49.186;9.226;2024-03-23T09:51:26;3.50;;;1.58;;
7253;SDS011;4060;49.186;9.226;2024-03-23T09:53:55;1.95;;;1.40;;
7253;SDS011;4060;49.186;9.226;2024-03-23T09:56:25;2.10;;;1.30;;
7253;SDS011;4060;49.186;9.226;2024-03-23T09:59:00;3.65;;;1.52;;
7253;SDS011;4060;49.186;9.226;2024-03-23T10:01:31;2.83;;;1.50;;
7253;SDS011;4060;49.186;9.226;2024-03-23T10:04:01;2.78;;;1.73;;
7253;SDS011;4060;49.186;9.226;2024-03-23T10:06:33;2.25;;;1.60;;
7253;SDS011;4060;49.186;9.226;2024-03-23T10:09:03;2.58;;;1.33;;
7253;SDS011;4060;49.186;9.226;2024-03-23T10:11:47;3.67;;;1.38;;
7253;SDS011;4060;49.186;9.226;2024-03-23T10:14:24;3.45;;;1.45;;
7253;SDS011;4060;49.186;9.226;2024-03-23T10:17:05;3.95;;;1.58;;
7253;SDS011;4060;49.186;9.226;2024-03-23T10:19:42;2.67;;;1.05;;
7253;SDS011;4060;49.186;9.226;2024-03-23T10:22:13;1.52;;;1.27;;
7253;SDS011;4060;49.186;9.226;2024-03-23T10:24:45;3.55;;;1.70;;
7253;SDS011;4060;49.186;9.226;2024-03-23T10:27:16;3.60;;;1.50;;
7253;SDS011;4060;49.186;9.226;2024-03-23T10:29:45;2.20;;;1.40;;
7253;SDS011;4060;49.186;9.226;2024-03-23T10:32:15;2.42;;;1.17;;
7253;SDS011;4060;49.186;9.226;2024-03-23T10:34:47;2.15;;;1.20;;
7253;SDS011;4060;49.186;9.226;2024-03-23T10:37:23;4.03;;;1.77;;
7253;SDS011;4060;49.186;9.226;2024-03-23T10:39:51;2.00;;;1.20;;
7253;SDS011;4060;49.186;9.226;2024-03-23T10:42:22;1.20;;;1.10;;
7253;SDS011;4060;49.186;9.226;2024-03-23T10:44:50;2.75;;;1.42;;
7253;SDS011;4060;49.186;9.226;2024-03-23T10:47:22;4.97;;;1.48;;
7253;SDS011;4060;49.186;9.226;2024-03-23T10:49:53;2.42;;;1.40;;
7253;SDS011;4060;49.186;9.226;2024-03-23T10:52:23;2.80;;;1.80;;
7253;SDS011;4060;49.186;9.226;2024-03-23T10:54:52;2.63;;;1.38;;
7253;SDS011;4060;49.186;9.226;2024-03-23T10:57:26;3.80;;;1.70;;
7253;SDS011;4060;49.186;9.226;2024-03-23T11:00:02;2.92;;;1.35;;
7253;SDS011;4060;49.186;9.226;2024-03-23T11:02:33;3.65;;;1.70;;
7253;SDS011;4060;49.186;9.226;2024-03-23T11:05:03;2.55;;;1.52;;
7253;SDS011;4060;49.186;9.226;2024-03-23T11:08:00;2.22;;;1.50;;
7253;SDS011;4060;49.186;9.226;2024-03-23T11:10:29;2.50;;;1.40;;
7253;SDS011;4060;49.186;9.226;2024-03-23T11:13:20;1.75;;;1.40;;
7253;SDS011;4060;49.186;9.226;2024-03-23T11:15:50;4.70;;;1.55;;
7253;SDS011;4060;49.186;9.226;2024-03-23T11:18:21;3.92;;;1.60;;
7253;SDS011;4060;49.186;9.226;2024-03-23T11:20:52;2.63;;;1.52;;
7253;SDS011;4060;49.186;9.226;2024-03-23T11:23:27;2.95;;;1.70;;
7253;SDS011;4060;49.186;9.226;2024-03-23T11:25:56;4.55;;;1.70;;
7253;SDS011;4060;49.186;9.226;2024-03-23T11:28:25;3.50;;;1.80;;
7253;SDS011;4060;49.186;9.226;2024-03-23T11:30:53;2.90;;;1.50;;
7253;SDS011;4060;49.186;9.226;2024-03-23T11:33:23;2.17;;;1.67;;
7253;SDS011;4060;49.186;9.226;2024-03-23T11:35:53;3.63;;;1.52;;
7253;SDS011;4060;49.186;9.226;2024-03-23T11:38:23;2.67;;;1.40;;
7253;SDS011;4060;49.186;9.226;2024-03-23T11:40:51;2.40;;;1.48;;
7253;SDS011;4060;49.186;9.226;2024-03-23T11:43:22;4.30;;;1.98;;
7253;SDS011;4060;49.186;9.226;2024-03-23T11:45:51;2.80;;;1.30;;
7253;SDS011;4060;49.186;9.226;2024-03-23T11:48:23;2.58;;;1.60;;
7253;SDS011;4060;49.186;9.226;2024-03-23T11:50:56;3.20;;;1.85;;
7253;SDS011;4060;49.186;9.226;2024-03-23T11:53:28;4.43;;;2.00;;
7253;SDS011;4060;49.186;9.226;2024-03-23T11:55:57;3.17;;;2.25;;
7253;SDS011;4060;49.186;9.226;2024-03-23T11:58:28;3.50;;;2.25;;
7253;SDS011;4060;49.186;9.226;2024-03-23T12:00:57;4.55;;;2.28;;
7253;SDS011;4060;49.186;9.226;2024-03-23T12:03:28;5.70;;;2.60;;
7253;SDS011;4060;49.186;9.226;2024-03-23T12:06:00;3.13;;;1.90;;
7253;SDS011;4060;49.186;9.226;2024-03-23T12:08:30;4.13;;;2.00;;
7253;SDS011;4060;49.186;9.226;2024-03-23T12:11:05;2.42;;;1.80;;
7253;SDS011;4060;49.186;9.226;2024-03-23T12:13:37;4.35;;;1.70;;
7253;SDS011;4060;49.186;9.226;2024-03-23T12:16:11;4.18;;;1.95;;
7253;SDS011;4060;49.186;9.226;2024-03-23T12:18:42;3.78;;;1.90;;
7253;SDS011;4060;49.186;9.226;2024-03-23T12:21:12;5.85;;;2.42;;
7253;SDS011;4060;49.186;9.226;2024-03-23T12:23:43;4.15;;;1.92;;
7253;SDS011;4060;49.186;9.226;2024-03-23T12:26:13;4.72;;;2.20;;
7253;SDS011;4060;49.186;9.226;2024-03-23T12:28:44;4.07;;;1.77;;
7253;SDS011;4060;49.186;9.226;2024-03-23T12:31:13;3.08;;;1.85;;
7253;SDS011;4060;49.186;9.226;2024-03-23T12:33:44;2.95;;;2.03;;
7253;SDS011;4060;49.186;9.226;2024-03-23T12:36:15;6.13;;;1.98;;
7253;SDS011;4060;49.186;9.226;2024-03-23T12:38:45;4.85;;;2.00;;
7253;SDS011;4060;49.186;9.226;2024-03-23T12:41:13;4.22;;;1.80;;
7253;SDS011;4060;49.186;9.226;2024-03-23T12:43:44;5.10;;;2.58;;
7253;SDS011;4060;49.186;9.226;2024-03-23T12:46:12;3.60;;;1.50;;
7253;SDS011;4060;49.186;9.226;2024-03-23T12:48:44;2.25;;;1.60;;
7253;SDS011;4060;49.186;9.226;2024-03-23T12:51:14;3.75;;;1.60;;
7253;SDS011;4060;49.186;9.226;2024-03-23T12:53:44;3.33;;;1.63;;
7253;SDS011;4060;49.186;9.226;2024-03-23T12:56:13;2.85;;;1.48;;
7253;SDS011;4060;49.186;9.226;2024-03-23T12:58:43;3.42;;;1.40;;
7253;SDS011;4060;49.186;9.226;2024-03-23T13:01:14;2.42;;;1.65;;
7253;SDS011;4060;49.186;9.226;2024-03-23T13:03:46;3.17;;;1.17;;
7253;SDS011;4060;49.186;9.226;2024-03-23T13:06:17;2.97;;;1.45;;
7253;SDS011;4060;49.186;9.226;2024-03-23T13:08:47;1.77;;;1.27;;
7253;SDS011;4060;49.186;9.226;2024-03-23T13:11:16;4.88;;;1.73;;
7253;SDS011;4060;49.186;9.226;2024-03-23T13:13:47;2.05;;;1.33;;
7253;SDS011;4060;49.186;9.226;2024-03-23T13:16:16;4.10;;;1.40;;
7253;SDS011;4060;49.186;9.226;2024-03-23T13:18:46;3.90;;;1.70;;
7253;SDS011;4060;49.186;9.226;2024-03-23T13:21:14;3.30;;;1.50;;
7253;SDS011;4060;49.186;9.226;2024-03-23T13:23:49;4.13;;;1.73;;
7253;SDS011;4060;49.186;9.226;2024-03-23T13:26:18;2.70;;;1.90;;
7253;SDS011;4060;49.186;9.226;2024-03-23T13:28:48;2.55;;;1.27;;
7253;SDS011;4060;49.186;9.226;2024-03-23T13:31:18;3.50;;;1.75;;
7253;SDS011;4060;49.186;9.226;2024-03-23T13:33:49;3.60;;;1.60;;
7253;SDS011;4060;49.186;9.226;2024-03-23T13:36:21;5.15;;;1.75;;
7253;SDS011;4060;49.186;9.226;2024-03-23T13:38:53;2.15;;;1.20;;
7253;SDS011;4060;49.186;9.226;2024-03-23T13:41:23;4.68;;;1.60;;
7253;SDS011;4060;49.186;9.226;2024-03-23T13:43:52;3.83;;;1.55;;
7253;SDS011;4060;49.186;9.226;2024-03-23T13:46:23;2.65;;;1.73;;
7253;SDS011;4060;49.186;9.226;2024-03-23T13:48:52;3.15;;;1.40;;
7253;SDS011;4060;49.186;9.226;2024-03-23T13:51:25;2.08;;;1.25;;
7253;SDS011;4060;49.186;9.226;2024-03-23T13:53:54;2.88;;;1.40;;
7253;SDS011;4060;49.186;9.226;2024-03-23T13:56:27;3.90;;;1.42;;
7253;SDS011;4060;49.186;9.226;2024-03-23T13:58:56;3.53;;;1.88;;
7253;SDS011;4060;49.186;9.226;2024-03-23T14:01:27;3.83;;;1.70;;
7253;SDS011;4060;49.186;9.226;2024-03-23T14:03:56;3.47;;;1.55;;
7253;SDS011;4060;49.186;9.226;2024-03-23T14:06:29;2.33;;;1.30;;
7253;SDS011;4060;49.186;9.226;2024-03-23T14:08:59;2.28;;;1.42;;
7253;SDS011;4060;49.186;9.226;2024-03-23T14:11:30;3.90;;;1.60;;
7253;SDS011;4060;49.186;9.226;2024-03-23T14:14:01;3.47;;;1.20;;
7253;SDS011;4060;49.186;9.226;2024-03-23T14:16:30;1.70;;;1.20;;
7253;SDS011;4060;49.186;9.226;2024-03-23T14:19:03;3.20;;;1.35;;
7253;SDS011;4060;49.186;9.226;2024-03-23T14:21:37;1.98;;;1.48;;
7253;SDS011;4060;49.186;9.226;2024-03-23T14:24:11;1.88;;;1.10;;
7253;SDS011;4060;49.186;9.226;2024-03-23T14:26:39;2.53;;;1.20;;
7253;SDS011;4060;49.186;9.226;2024-03-23T14:29:10;2.05;;;1.42;;
7253;SDS011;4060;49.186;9.226;2024-03-23T14:31:39;0.80;;;0.80;;
7253;SDS011;4060;49.186;9.226;2024-03-23T14:34:11;1.10;;;0.98;;
7253;SDS011;4060;49.186;9.226;2024-03-23T14:36:44;3.58;;;1.15;;
7253;SDS011;4060;49.186;9.226;2024-03-23T14:39:15;1.58;;;0.98;;
7253;SDS011;4060;49.186;9.226;2024-03-23T14:41:44;2.83;;;1.13;;
7253;SDS011;4060;49.186;9.226;2024-03-23T14:44:20;2.20;;;0.82;;
7253;SDS011;4060;49.186;9.226;2024-03-23T14:46:51;1.75;;;1.05;;
7253;SDS011;4060;49.186;9.226;2024-03-23T14:49:23;2.60;;;1.02;;
7253;SDS011;4060;49.186;9.226;2024-03-23T14:51:55;2.22;;;0.88;;
7253;SDS011;4060;49.186;9.226;2024-03-23T14:54:27;1.27;;;0.80;;
7253;SDS011;4060;49.186;9.226;2024-03-23T14:56:56;1.50;;;0.90;;
7253;SDS011;4060;49.186;9.226;2024-03-23T14:59:27;0.95;;;0.70;;
7253;SDS011;4060;49.186;9.226;2024-03-23T15:01:57;1.17;;;0.65;;
7253;SDS011;4060;49.186;9.226;2024-03-23T15:04:30;1.83;;;1.00;;
7253;SDS011;4060;49.186;9.226;2024-03-23T15:07:03;1.23;;;0.90;;
7253;SDS011;4060;49.186;9.226;2024-03-23T15:09:37;2.05;;;0.95;;
7253;SDS011;4060;49.186;9.226;2024-03-23T15:12:06;2.35;;;0.80;;
7253;SDS011;4060;49.186;9.226;2024-03-23T15:14:44;2.03;;;1.00;;
7253;SDS011;4060;49.186;9.226;2024-03-23T15:17:13;0.90;;;0.90;;
7253;SDS011;4060;49.186;9.226;2024-03-23T15:19:45;3.72;;;1.33;;
7253;SDS011;4060;49.186;9.226;2024-03-23T15:22:18;1.45;;;1.00;;
7253;SDS011;4060;49.186;9.226;2024-03-23T15:24:49;2.20;;;0.75;;
7253;SDS011;4060;49.186;9.226;2024-03-23T15:27:21;1.77;;;1.05;;
7253;SDS011;4060;49.186;9.226;2024-03-23T15:29:52;1.20;;;0.85;;
7253;SDS011;4060;49.186;9.226;2024-03-23T15:32:24;1.63;;;0.80;;
7253;SDS011;4060;49.186;9.226;2024-03-23T15:34:57;2.42;;;1.13;;
7253;SDS011;4060;49.186;9.226;2024-03-23T15:37:31;0.90;;;0.80;;
7253;SDS011;4060;49.186;9.226;2024-03-23T15:40:06;0.75;;;0.75;;
7253;SDS011;4060;49.186;9.226;2024-03-23T15:42:38;3.25;;;0.80;;
7253;SDS011;4060;49.186;9.226;2024-03-23T15:45:10;1.77;;;0.85;;
7253;SDS011;4060;49.186;9.226;2024-03-23T15:47:38;1.67;;;1.10;;
7253;SDS011;4060;49.186;9.226;2024-03-23T15:50:10;1.25;;;0.80;;
7253;SDS011;4060;49.186;9.226;2024-03-23T15:52:44;3.60;;;1.00;;
7253;SDS011;4060;49.186;9.226;2024-03-23T15:55:17;2.40;;;0.90;;
7253;SDS011;4060;49.186;9.226;2024-03-23T15:57:46;0.80;;;0.73;;
7253;SDS011;4060;49.186;9.226;2024-03-23T16:00:18;1.08;;;0.90;;
7253;SDS011;4060;49.186;9.226;2024-03-23T16:02:47;1.50;;;0.93;;
7253;SDS011;4060;49.186;9.226;2024-03-23T16:05:19;3.38;;;1.13;;
7253;SDS011;4060;49.186;9.226;2024-03-23T16:07:51;2.53;;;1.17;;
7253;SDS011;4060;49.186;9.226;2024-03-23T16:10:22;1.60;;;1.05;;
7253;SDS011;4060;49.186;9.226;2024-03-23T16:12:53;2.75;;;1.05;;
7253;SDS011;4060;49.186;9.226;2024-03-23T16:15:22;2.33;;;1.00;;
7253;SDS011;4060;49.186;9.226;2024-03-23T16:17:54;1.10;;;0.90;;
7253;SDS011;4060;49.186;9.226;2024-03-23T16:20:23;1.98;;;1.17;;
7253;SDS011;4060;49.186;9.226;2024-03-23T16:23:02;1.25;;;0.88;;
7253;SDS011;4060;49.186;9.226;2024-03-23T16:25:32;2.42;;;1.20;;
7253;SDS011;4060;49.186;9.226;2024-03-23T16:28:05;3.17;;;1.23;;